Main page
METAR-TAF:

METAR-TAF

Airports :

Honiara, Guadalcanal, Solomon Islands

Honiara International Airport

latitude: 09-25S, longitude: 160-03E, elevation: 8 m

Current weather observation

The report was made 44 minutes ago, at 20:00 UTC
Wind 4 kt from the South/Southeast
Temperature 21°C
Humidity 100%
Pressure 1009 hPa
Visibility 10 km or more
Few clouds at a height of 1400 ft

METAR: AGGH 202000Z 16004KT 9999 FEW014 21/21 Q1009

Time: 07:44 (20:44 UTC)

Forecast

The report was made 3 hours and 21 minutes ago, at 17:23 UTC
Forecast valid from 20 at 18 UTC to 21 at 18 UTC
Wind 12 kt from the East
Visibility: 1008 m
Few clouds at a height of 1800 ft
Scattered clouds at a height of 3000 ft

TAF: AGGH 201723Z 2018/2118 09012KT 9999 FEW018 SCT030 T 23 26 30 31 Q 1008 1010 1010 1008

Weather observations and forecasts of more than 4000 airports (METAR and TAF reports).

The available stations are represented by yellow and red dots on the map.

Hover mouse over dot to see the name of the station.

Then click to see weather observations and forecasts.

To change the map : click on the green buttons with a black cross to zoom in, on the green button with a dash to zoom out, or on the green arrows for adjacent maps.


METAR-TAF: